sensor_id;sensor_type;location;lat;lon;timestamp;P1;durP1;ratioP1;P2;durP2;ratioP2
8297;SDS011;4187;42.778;23.242;2023-06-24T00:02:24;23.20;;;14.10;;
8297;SDS011;4187;42.778;23.242;2023-06-24T00:04:51;14.32;;;12.88;;
8297;SDS011;4187;42.778;23.242;2023-06-24T00:07:18;15.18;;;13.68;;
8297;SDS011;4187;42.778;23.242;2023-06-24T00:09:47;16.50;;;13.63;;
8297;SDS011;4187;42.778;23.242;2023-06-24T00:12:15;17.85;;;14.35;;
8297;SDS011;4187;42.778;23.242;2023-06-24T00:14:44;14.93;;;13.10;;
8297;SDS011;4187;42.778;23.242;2023-06-24T00:17:12;14.48;;;12.98;;
8297;SDS011;4187;42.778;23.242;2023-06-24T00:19:39;18.17;;;13.88;;
8297;SDS011;4187;42.778;23.242;2023-06-24T00:22:05;14.52;;;13.20;;
8297;SDS011;4187;42.778;23.242;2023-06-24T00:24:32;16.45;;;13.60;;
8297;SDS011;4187;42.778;23.242;2023-06-24T00:27:01;15.30;;;13.23;;
8297;SDS011;4187;42.778;23.242;2023-06-24T00:29:29;15.02;;;12.73;;
8297;SDS011;4187;42.778;23.242;2023-06-24T00:31:56;14.60;;;13.10;;
8297;SDS011;4187;42.778;23.242;2023-06-24T00:34:23;15.32;;;13.88;;
8297;SDS011;4187;42.778;23.242;2023-06-24T00:36:50;16.35;;;13.75;;
8297;SDS011;4187;42.778;23.242;2023-06-24T00:39:17;16.15;;;13.48;;
8297;SDS011;4187;42.778;23.242;2023-06-24T00:41:44;15.95;;;13.63;;
8297;SDS011;4187;42.778;23.242;2023-06-24T00:44:11;19.85;;;14.55;;
8297;SDS011;4187;42.778;23.242;2023-06-24T00:46:40;20.15;;;14.63;;
8297;SDS011;4187;42.778;23.242;2023-06-24T00:49:07;20.27;;;15.10;;
8297;SDS011;4187;42.778;23.242;2023-06-24T00:51:34;18.85;;;14.23;;
8297;SDS011;4187;42.778;23.242;2023-06-24T00:54:01;17.02;;;15.23;;
8297;SDS011;4187;42.778;23.242;2023-06-24T00:56:30;16.10;;;14.30;;
8297;SDS011;4187;42.778;23.242;2023-06-24T00:59:00;19.67;;;14.80;;
8297;SDS011;4187;42.778;23.242;2023-06-24T01:01:29;16.98;;;15.25;;
8297;SDS011;4187;42.778;23.242;2023-06-24T01:04:00;17.23;;;15.48;;
8297;SDS011;4187;42.778;23.242;2023-06-24T01:06:28;16.70;;;14.55;;
8297;SDS011;4187;42.778;23.242;2023-06-24T01:08:55;16.17;;;14.43;;
8297;SDS011;4187;42.778;23.242;2023-06-24T01:11:22;18.10;;;16.05;;
8297;SDS011;4187;42.778;23.242;2023-06-24T01:13:50;17.73;;;14.45;;
8297;SDS011;4187;42.778;23.242;2023-06-24T01:16:20;17.30;;;14.82;;
8297;SDS011;4187;42.778;23.242;2023-06-24T01:18:53;19.33;;;15.55;;
8297;SDS011;4187;42.778;23.242;2023-06-24T01:21:31;16.42;;;14.68;;
8297;SDS011;4187;42.778;23.242;2023-06-24T01:24:23;16.92;;;14.77;;
8297;SDS011;4187;42.778;23.242;2023-06-24T01:27:10;18.45;;;15.70;;
8297;SDS011;4187;42.778;23.242;2023-06-24T01:32:56;19.58;;;14.65;;
8297;SDS011;4187;42.778;23.242;2023-06-24T01:35:28;20.27;;;16.27;;
8297;SDS011;4187;42.778;23.242;2023-06-24T01:37:58;20.73;;;15.00;;
8297;SDS011;4187;42.778;23.242;2023-06-24T01:40:30;18.75;;;16.27;;
8297;SDS011;4187;42.778;23.242;2023-06-24T01:43:00;19.05;;;16.88;;
8297;SDS011;4187;42.778;23.242;2023-06-24T01:45:32;20.88;;;15.95;;
8297;SDS011;4187;42.778;23.242;2023-06-24T01:48:06;20.75;;;15.98;;
8297;SDS011;4187;42.778;23.242;2023-06-24T01:50:35;17.33;;;15.55;;
8297;SDS011;4187;42.778;23.242;2023-06-24T01:53:04;18.27;;;16.35;;
8297;SDS011;4187;42.778;23.242;2023-06-24T01:55:33;17.67;;;15.73;;
8297;SDS011;4187;42.778;23.242;2023-06-24T01:58:02;18.67;;;14.70;;
8297;SDS011;4187;42.778;23.242;2023-06-24T02:00:31;18.33;;;15.23;;
8297;SDS011;4187;42.778;23.242;2023-06-24T02:02:59;18.30;;;15.95;;
8297;SDS011;4187;42.778;23.242;2023-06-24T02:05:29;17.70;;;15.80;;
8297;SDS011;4187;42.778;23.242;2023-06-24T02:07:58;19.85;;;16.27;;
8297;SDS011;4187;42.778;23.242;2023-06-24T02:10:26;21.20;;;16.90;;
8297;SDS011;4187;42.778;23.242;2023-06-24T02:12:54;19.80;;;16.55;;
8297;SDS011;4187;42.778;23.242;2023-06-24T02:15:23;20.90;;;15.98;;
8297;SDS011;4187;42.778;23.242;2023-06-24T02:17:52;19.70;;;17.65;;
8297;SDS011;4187;42.778;23.242;2023-06-24T02:20:21;17.48;;;15.77;;
8297;SDS011;4187;42.778;23.242;2023-06-24T02:22:53;19.40;;;17.35;;
8297;SDS011;4187;42.778;23.242;2023-06-24T02:25:20;20.35;;;18.05;;
8297;SDS011;4187;42.778;23.242;2023-06-24T02:27:49;19.63;;;17.25;;
8297;SDS011;4187;42.778;23.242;2023-06-24T02:30:16;20.58;;;16.70;;
8297;SDS011;4187;42.778;23.242;2023-06-24T02:32:43;19.00;;;16.27;;
8297;SDS011;4187;42.778;23.242;2023-06-24T02:35:10;19.73;;;16.35;;
8297;SDS011;4187;42.778;23.242;2023-06-24T02:37:38;20.55;;;16.40;;
8297;SDS011;4187;42.778;23.242;2023-06-24T02:40:07;18.77;;;16.95;;
8297;SDS011;4187;42.778;23.242;2023-06-24T02:42:36;17.83;;;16.15;;
8297;SDS011;4187;42.778;23.242;2023-06-24T02:45:03;18.67;;;15.95;;
8297;SDS011;4187;42.778;23.242;2023-06-24T02:47:32;16.45;;;14.75;;
8297;SDS011;4187;42.778;23.242;2023-06-24T02:50:01;19.25;;;15.75;;
8297;SDS011;4187;42.778;23.242;2023-06-24T02:52:29;17.55;;;15.82;;
8297;SDS011;4187;42.778;23.242;2023-06-24T02:54:57;20.10;;;17.13;;
8297;SDS011;4187;42.778;23.242;2023-06-24T02:57:27;21.88;;;16.05;;
8297;SDS011;4187;42.778;23.242;2023-06-24T02:59:54;18.80;;;16.77;;
8297;SDS011;4187;42.778;23.242;2023-06-24T03:02:21;21.00;;;17.15;;
8297;SDS011;4187;42.778;23.242;2023-06-24T03:04:50;20.52;;;17.42;;
8297;SDS011;4187;42.778;23.242;2023-06-24T03:07:18;21.25;;;17.48;;
8297;SDS011;4187;42.778;23.242;2023-06-24T03:09:46;22.30;;;18.02;;
8297;SDS011;4187;42.778;23.242;2023-06-24T03:12:13;20.85;;;16.63;;
8297;SDS011;4187;42.778;23.242;2023-06-24T03:14:41;20.23;;;16.92;;
8297;SDS011;4187;42.778;23.242;2023-06-24T03:17:08;21.13;;;15.95;;
8297;SDS011;4187;42.778;23.242;2023-06-24T03:19:36;20.02;;;17.92;;
8297;SDS011;4187;42.778;23.242;2023-06-24T03:22:03;17.95;;;16.23;;
8297;SDS011;4187;42.778;23.242;2023-06-24T03:24:30;17.85;;;16.05;;
8297;SDS011;4187;42.778;23.242;2023-06-24T03:26:57;18.52;;;16.55;;
8297;SDS011;4187;42.778;23.242;2023-06-24T03:29:24;22.17;;;15.82;;
8297;SDS011;4187;42.778;23.242;2023-06-24T03:31:52;19.67;;;16.55;;
8297;SDS011;4187;42.778;23.242;2023-06-24T03:34:19;19.13;;;16.13;;
8297;SDS011;4187;42.778;23.242;2023-06-24T03:36:46;21.40;;;16.13;;
8297;SDS011;4187;42.778;23.242;2023-06-24T03:39:13;18.33;;;16.40;;
8297;SDS011;4187;42.778;23.242;2023-06-24T03:41:40;21.60;;;15.63;;
8297;SDS011;4187;42.778;23.242;2023-06-24T03:44:06;21.20;;;16.08;;
8297;SDS011;4187;42.778;23.242;2023-06-24T03:46:33;18.35;;;16.40;;
8297;SDS011;4187;42.778;23.242;2023-06-24T03:49:01;22.17;;;17.38;;
8297;SDS011;4187;42.778;23.242;2023-06-24T03:51:28;23.17;;;20.20;;
8297;SDS011;4187;42.778;23.242;2023-06-24T03:53:56;26.40;;;23.45;;
8297;SDS011;4187;42.778;23.242;2023-06-24T03:56:23;21.23;;;19.10;;
8297;SDS011;4187;42.778;23.242;2023-06-24T03:58:50;21.27;;;19.05;;
8297;SDS011;4187;42.778;23.242;2023-06-24T04:01:17;22.38;;;18.40;;
8297;SDS011;4187;42.778;23.242;2023-06-24T04:03:48;21.65;;;18.10;;
8297;SDS011;4187;42.778;23.242;2023-06-24T04:06:19;19.35;;;16.15;;
8297;SDS011;4187;42.778;23.242;2023-06-24T04:08:46;18.13;;;16.23;;
8297;SDS011;4187;42.778;23.242;2023-06-24T04:11:13;19.08;;;17.00;;
8297;SDS011;4187;42.778;23.242;2023-06-24T04:13:40;21.98;;;17.35;;
8297;SDS011;4187;42.778;23.242;2023-06-24T04:16:07;17.90;;;16.05;;
8297;SDS011;4187;42.778;23.242;2023-06-24T04:18:34;17.27;;;15.57;;
8297;SDS011;4187;42.778;23.242;2023-06-24T04:21:04;18.48;;;15.57;;
8297;SDS011;4187;42.778;23.242;2023-06-24T04:23:34;18.02;;;16.23;;
8297;SDS011;4187;42.778;23.242;2023-06-24T04:26:00;17.88;;;16.05;;
8297;SDS011;4187;42.778;23.242;2023-06-24T04:28:27;17.45;;;15.52;;
8297;SDS011;4187;42.778;23.242;2023-06-24T04:30:55;20.98;;;15.90;;
8297;SDS011;4187;42.778;23.242;2023-06-24T04:33:22;18.27;;;16.38;;
8297;SDS011;4187;42.778;23.242;2023-06-24T04:35:49;16.15;;;14.45;;
8297;SDS011;4187;42.778;23.242;2023-06-24T04:38:17;18.98;;;15.63;;
8297;SDS011;4187;42.778;23.242;2023-06-24T04:40:45;19.00;;;15.95;;
8297;SDS011;4187;42.778;23.242;2023-06-24T04:43:12;16.52;;;14.93;;
8297;SDS011;4187;42.778;23.242;2023-06-24T04:45:39;16.60;;;14.93;;
8297;SDS011;4187;42.778;23.242;2023-06-24T04:48:06;16.13;;;14.57;;
8297;SDS011;4187;42.778;23.242;2023-06-24T04:50:32;15.25;;;13.85;;
8297;SDS011;4187;42.778;23.242;2023-06-24T04:52:59;19.38;;;14.27;;
8297;SDS011;4187;42.778;23.242;2023-06-24T04:55:27;15.25;;;13.68;;
8297;SDS011;4187;42.778;23.242;2023-06-24T04:57:56;15.68;;;14.18;;
8297;SDS011;4187;42.778;23.242;2023-06-24T05:00:23;15.65;;;14.25;;
8297;SDS011;4187;42.778;23.242;2023-06-24T05:02:50;16.40;;;14.85;;
8297;SDS011;4187;42.778;23.242;2023-06-24T05:05:17;16.42;;;14.45;;
8297;SDS011;4187;42.778;23.242;2023-06-24T05:07:45;17.27;;;15.48;;
8297;SDS011;4187;42.778;23.242;2023-06-24T05:10:13;15.65;;;14.10;;
8297;SDS011;4187;42.778;23.242;2023-06-24T05:12:43;15.00;;;13.55;;
8297;SDS011;4187;42.778;23.242;2023-06-24T05:15:11;15.70;;;14.10;;
8297;SDS011;4187;42.778;23.242;2023-06-24T05:17:38;15.18;;;13.55;;
8297;SDS011;4187;42.778;23.242;2023-06-24T05:20:06;15.77;;;14.18;;
8297;SDS011;4187;42.778;23.242;2023-06-24T05:22:34;15.48;;;14.10;;
8297;SDS011;4187;42.778;23.242;2023-06-24T05:25:01;16.42;;;14.93;;
8297;SDS011;4187;42.778;23.242;2023-06-24T05:27:27;16.02;;;14.60;;
8297;SDS011;4187;42.778;23.242;2023-06-24T05:29:54;15.65;;;14.18;;
8297;SDS011;4187;42.778;23.242;2023-06-24T05:32:22;16.42;;;14.82;;
8297;SDS011;4187;42.778;23.242;2023-06-24T05:34:49;16.20;;;13.98;;
8297;SDS011;4187;42.778;23.242;2023-06-24T05:37:16;15.45;;;14.07;;
8297;SDS011;4187;42.778;23.242;2023-06-24T05:39:43;14.48;;;13.18;;
8297;SDS011;4187;42.778;23.242;2023-06-24T05:42:10;17.50;;;14.25;;
8297;SDS011;4187;42.778;23.242;2023-06-24T05:44:36;16.98;;;13.85;;
8297;SDS011;4187;42.778;23.242;2023-06-24T05:47:03;13.55;;;12.15;;
8297;SDS011;4187;42.778;23.242;2023-06-24T05:49:32;14.20;;;12.98;;
8297;SDS011;4187;42.778;23.242;2023-06-24T05:51:58;15.30;;;13.88;;
8297;SDS011;4187;42.778;23.242;2023-06-24T05:54:25;15.10;;;12.60;;
8297;SDS011;4187;42.778;23.242;2023-06-24T05:56:52;14.35;;;12.88;;
8297;SDS011;4187;42.778;23.242;2023-06-24T05:59:19;15.10;;;13.45;;
8297;SDS011;4187;42.778;23.242;2023-06-24T06:01:46;13.63;;;12.27;;
8297;SDS011;4187;42.778;23.242;2023-06-24T06:04:12;13.93;;;12.63;;
8297;SDS011;4187;42.778;23.242;2023-06-24T06:06:41;15.00;;;13.60;;
8297;SDS011;4187;42.778;23.242;2023-06-24T06:09:07;14.50;;;13.20;;
8297;SDS011;4187;42.778;23.242;2023-06-24T06:11:34;14.18;;;12.55;;
8297;SDS011;4187;42.778;23.242;2023-06-24T06:14:01;14.80;;;13.40;;
8297;SDS011;4187;42.778;23.242;2023-06-24T06:16:28;14.30;;;13.00;;
8297;SDS011;4187;42.778;23.242;2023-06-24T06:18:55;15.18;;;13.90;;
8297;SDS011;4187;42.778;23.242;2023-06-24T06:21:21;14.90;;;13.52;;
8297;SDS011;4187;42.778;23.242;2023-06-24T06:23:50;15.23;;;13.93;;
8297;SDS011;4187;42.778;23.242;2023-06-24T06:26:17;16.05;;;14.43;;
8297;SDS011;4187;42.778;23.242;2023-06-24T06:28:44;14.75;;;13.45;;
8297;SDS011;4187;42.778;23.242;2023-06-24T06:31:12;15.20;;;13.90;;
8297;SDS011;4187;42.778;23.242;2023-06-24T06:33:39;15.63;;;14.00;;
8297;SDS011;4187;42.778;23.242;2023-06-24T06:36:06;15.20;;;13.77;;
8297;SDS011;4187;42.778;23.242;2023-06-24T06:38:32;15.77;;;14.32;;
8297;SDS011;4187;42.778;23.242;2023-06-24T06:41:01;13.88;;;12.57;;
8297;SDS011;4187;42.778;23.242;2023-06-24T06:43:28;14.50;;;13.20;;
8297;SDS011;4187;42.778;23.242;2023-06-24T06:45:55;15.25;;;13.80;;
8297;SDS011;4187;42.778;23.242;2023-06-24T06:48:22;15.32;;;13.82;;
8297;SDS011;4187;42.778;23.242;2023-06-24T06:50:49;14.10;;;12.90;;
8297;SDS011;4187;42.778;23.242;2023-06-24T06:53:17;13.60;;;12.50;;
8297;SDS011;4187;42.778;23.242;2023-06-24T06:55:44;14.48;;;13.02;;
8297;SDS011;4187;42.778;23.242;2023-06-24T06:58:12;14.77;;;12.68;;
8297;SDS011;4187;42.778;23.242;2023-06-24T07:00:39;14.38;;;12.98;;
8297;SDS011;4187;42.778;23.242;2023-06-24T07:03:06;13.70;;;12.05;;
8297;SDS011;4187;42.778;23.242;2023-06-24T07:05:33;13.77;;;12.48;;
8297;SDS011;4187;42.778;23.242;2023-06-24T07:08:00;14.07;;;12.63;;
8297;SDS011;4187;42.778;23.242;2023-06-24T07:10:26;13.70;;;12.38;;
8297;SDS011;4187;42.778;23.242;2023-06-24T07:12:53;13.63;;;12.10;;
8297;SDS011;4187;42.778;23.242;2023-06-24T07:15:24;12.82;;;11.73;;
8297;SDS011;4187;42.778;23.242;2023-06-24T07:17:52;12.98;;;11.65;;
8297;SDS011;4187;42.778;23.242;2023-06-24T07:20:20;13.68;;;12.10;;
8297;SDS011;4187;42.778;23.242;2023-06-24T07:22:47;13.38;;;12.23;;
8297;SDS011;4187;42.778;23.242;2023-06-24T07:25:14;11.98;;;10.98;;
8297;SDS011;4187;42.778;23.242;2023-06-24T07:27:41;13.00;;;11.90;;
8297;SDS011;4187;42.778;23.242;2023-06-24T07:30:08;12.27;;;11.27;;
8297;SDS011;4187;42.778;23.242;2023-06-24T07:32:36;11.98;;;10.98;;
8297;SDS011;4187;42.778;23.242;2023-06-24T07:35:04;12.02;;;11.07;;
8297;SDS011;4187;42.778;23.242;2023-06-24T07:37:31;11.30;;;10.23;;
8297;SDS011;4187;42.778;23.242;2023-06-24T07:39:58;12.68;;;11.48;;
8297;SDS011;4187;42.778;23.242;2023-06-24T07:42:25;12.93;;;11.82;;
8297;SDS011;4187;42.778;23.242;2023-06-24T07:44:52;11.75;;;10.70;;
8297;SDS011;4187;42.778;23.242;2023-06-24T07:47:19;12.27;;;11.15;;
8297;SDS011;4187;42.778;23.242;2023-06-24T07:49:47;12.38;;;11.23;;
8297;SDS011;4187;42.778;23.242;2023-06-24T07:52:14;10.55;;;9.70;;
8297;SDS011;4187;42.778;23.242;2023-06-24T07:54:41;10.93;;;10.02;;
8297;SDS011;4187;42.778;23.242;2023-06-24T07:57:08;11.20;;;10.05;;
8297;SDS011;4187;42.778;23.242;2023-06-24T07:59:35;10.88;;;10.00;;
8297;SDS011;4187;42.778;23.242;2023-06-24T08:02:02;11.30;;;10.40;;
8297;SDS011;4187;42.778;23.242;2023-06-24T08:04:29;11.30;;;10.38;;
8297;SDS011;4187;42.778;23.242;2023-06-24T08:06:57;13.80;;;11.05;;
8297;SDS011;4187;42.778;23.242;2023-06-24T08:09:24;11.68;;;10.68;;
8297;SDS011;4187;42.778;23.242;2023-06-24T08:11:51;11.77;;;10.63;;
8297;SDS011;4187;42.778;23.242;2023-06-24T08:14:18;12.23;;;11.13;;
8297;SDS011;4187;42.778;23.242;2023-06-24T08:16:45;11.80;;;10.80;;
8297;SDS011;4187;42.778;23.242;2023-06-24T08:19:11;11.88;;;10.70;;
8297;SDS011;4187;42.778;23.242;2023-06-24T08:21:39;12.75;;;10.63;;
8297;SDS011;4187;42.778;23.242;2023-06-24T08:24:07;11.63;;;10.63;;
8297;SDS011;4187;42.778;23.242;2023-06-24T08:26:34;11.85;;;10.80;;
8297;SDS011;4187;42.778;23.242;2023-06-24T08:29:01;12.05;;;11.00;;
8297;SDS011;4187;42.778;23.242;2023-06-24T08:31:28;12.23;;;10.95;;
8297;SDS011;4187;42.778;23.242;2023-06-24T08:33:54;12.93;;;10.90;;
8297;SDS011;4187;42.778;23.242;2023-06-24T08:36:27;14.00;;;11.13;;
8297;SDS011;4187;42.778;23.242;2023-06-24T08:38:55;11.30;;;10.30;;
8297;SDS011;4187;42.778;23.242;2023-06-24T08:41:23;12.32;;;11.30;;
8297;SDS011;4187;42.778;23.242;2023-06-24T08:43:51;12.10;;;11.05;;
8297;SDS011;4187;42.778;23.242;2023-06-24T08:46:19;10.50;;;9.70;;
8297;SDS011;4187;42.778;23.242;2023-06-24T08:48:48;11.05;;;9.93;;
8297;SDS011;4187;42.778;23.242;2023-06-24T08:51:16;10.35;;;9.38;;
8297;SDS011;4187;42.778;23.242;2023-06-24T08:53:47;11.05;;;10.13;;
8297;SDS011;4187;42.778;23.242;2023-06-24T08:56:15;11.15;;;10.05;;
8297;SDS011;4187;42.778;23.242;2023-06-24T08:58:43;14.75;;;10.43;;
8297;SDS011;4187;42.778;23.242;2023-06-24T09:01:10;12.68;;;11.57;;
8297;SDS011;4187;42.778;23.242;2023-06-24T09:03:37;13.35;;;12.20;;
8297;SDS011;4187;42.778;23.242;2023-06-24T09:06:04;13.65;;;12.35;;
8297;SDS011;4187;42.778;23.242;2023-06-24T09:08:31;12.60;;;11.43;;
8297;SDS011;4187;42.778;23.242;2023-06-24T09:11:00;13.27;;;12.18;;
8297;SDS011;4187;42.778;23.242;2023-06-24T09:13:33;12.88;;;11.70;;
8297;SDS011;4187;42.778;23.242;2023-06-24T09:16:09;10.95;;;9.90;;
8297;SDS011;4187;42.778;23.242;2023-06-24T09:18:38;11.77;;;10.10;;
8297;SDS011;4187;42.778;23.242;2023-06-24T09:21:04;11.35;;;10.23;;
8297;SDS011;4187;42.778;23.242;2023-06-24T09:23:35;11.45;;;10.15;;
8297;SDS011;4187;42.778;23.242;2023-06-24T09:26:02;11.85;;;9.85;;
8297;SDS011;4187;42.778;23.242;2023-06-24T09:28:29;12.30;;;10.30;;
8297;SDS011;4187;42.778;23.242;2023-06-24T09:31:09;10.73;;;9.85;;
8297;SDS011;4187;42.778;23.242;2023-06-24T09:33:36;11.52;;;10.50;;
8297;SDS011;4187;42.778;23.242;2023-06-24T09:36:05;10.25;;;9.40;;
8297;SDS011;4187;42.778;23.242;2023-06-24T09:38:32;10.40;;;9.43;;
8297;SDS011;4187;42.778;23.242;2023-06-24T09:41:02;9.77;;;8.88;;
8297;SDS011;4187;42.778;23.242;2023-06-24T09:43:29;11.93;;;10.27;;
8297;SDS011;4187;42.778;23.242;2023-06-24T09:45:57;10.77;;;9.73;;
8297;SDS011;4187;42.778;23.242;2023-06-24T09:48:25;10.70;;;9.52;;
8297;SDS011;4187;42.778;23.242;2023-06-24T09:50:52;10.95;;;9.98;;
8297;SDS011;4187;42.778;23.242;2023-06-24T09:53:20;12.90;;;9.75;;
8297;SDS011;4187;42.778;23.242;2023-06-24T09:55:48;10.95;;;9.85;;
8297;SDS011;4187;42.778;23.242;2023-06-24T09:58:18;11.50;;;10.50;;
8297;SDS011;4187;42.778;23.242;2023-06-24T10:00:45;12.75;;;10.43;;
8297;SDS011;4187;42.778;23.242;2023-06-24T10:03:12;12.25;;;10.18;;
8297;SDS011;4187;42.778;23.242;2023-06-24T10:05:41;10.77;;;9.70;;
8297;SDS011;4187;42.778;23.242;2023-06-24T10:08:09;12.10;;;10.30;;
8297;SDS011;4187;42.778;23.242;2023-06-24T10:10:37;12.60;;;9.85;;
8297;SDS011;4187;42.778;23.242;2023-06-24T10:13:04;10.80;;;10.00;;
8297;SDS011;4187;42.778;23.242;2023-06-24T10:15:31;10.25;;;9.35;;
8297;SDS011;4187;42.778;23.242;2023-06-24T10:18:01;10.77;;;9.77;;
8297;SDS011;4187;42.778;23.242;2023-06-24T10:20:31;11.05;;;9.95;;
8297;SDS011;4187;42.778;23.242;2023-06-24T10:23:07;11.40;;;10.00;;
8297;SDS011;4187;42.778;23.242;2023-06-24T10:25:35;10.48;;;9.10;;
8297;SDS011;4187;42.778;23.242;2023-06-24T10:28:03;11.18;;;9.90;;
8297;SDS011;4187;42.778;23.242;2023-06-24T10:30:30;11.25;;;10.32;;
8297;SDS011;4187;42.778;23.242;2023-06-24T10:32:58;10.00;;;9.10;;
8297;SDS011;4187;42.778;23.242;2023-06-24T10:35:25;11.05;;;10.00;;
8297;SDS011;4187;42.778;23.242;2023-06-24T10:37:57;10.30;;;9.32;;
8297;SDS011;4187;42.778;23.242;2023-06-24T10:40:35;10.80;;;9.73;;
8297;SDS011;4187;42.778;23.242;2023-06-24T10:45:56;10.48;;;9.60;;
8297;SDS011;4187;42.778;23.242;2023-06-24T10:48:24;9.40;;;8.60;;
8297;SDS011;4187;42.778;23.242;2023-06-24T10:50:51;10.43;;;9.50;;
8297;SDS011;4187;42.778;23.242;2023-06-24T10:53:18;9.73;;;8.93;;
8297;SDS011;4187;42.778;23.242;2023-06-24T10:55:46;10.95;;;9.52;;
8297;SDS011;4187;42.778;23.242;2023-06-24T10:58:14;11.05;;;9.93;;
8297;SDS011;4187;42.778;23.242;2023-06-24T11:00:41;9.23;;;8.27;;
8297;SDS011;4187;42.778;23.242;2023-06-24T11:03:11;9.63;;;8.82;;
8297;SDS011;4187;42.778;23.242;2023-06-24T11:05:43;9.57;;;8.65;;
8297;SDS011;4187;42.778;23.242;2023-06-24T11:08:11;11.10;;;8.52;;
8297;SDS011;4187;42.778;23.242;2023-06-24T11:10:42;9.55;;;8.63;;
8297;SDS011;4187;42.778;23.242;2023-06-24T11:13:12;9.50;;;8.55;;
8297;SDS011;4187;42.778;23.242;2023-06-24T11:15:39;9.25;;;8.35;;
8297;SDS011;4187;42.778;23.242;2023-06-24T11:18:07;9.18;;;8.43;;
8297;SDS011;4187;42.778;23.242;2023-06-24T11:20:36;8.93;;;8.18;;
8297;SDS011;4187;42.778;23.242;2023-06-24T11:23:06;9.45;;;8.55;;
8297;SDS011;4187;42.778;23.242;2023-06-24T11:25:38;9.25;;;8.45;;
8297;SDS011;4187;42.778;23.242;2023-06-24T11:28:13;9.07;;;8.18;;
8297;SDS011;4187;42.778;23.242;2023-06-24T11:30:40;9.45;;;8.65;;
8297;SDS011;4187;42.778;23.242;2023-06-24T11:33:07;9.32;;;8.52;;
8297;SDS011;4187;42.778;23.242;2023-06-24T11:35:34;10.20;;;7.72;;
8297;SDS011;4187;42.778;23.242;2023-06-24T11:38:02;9.23;;;7.93;;
8297;SDS011;4187;42.778;23.242;2023-06-24T11:40:30;9.20;;;7.85;;
8297;SDS011;4187;42.778;23.242;2023-06-24T11:42:59;8.23;;;7.38;;
8297;SDS011;4187;42.778;23.242;2023-06-24T11:45:28;7.22;;;6.53;;
8297;SDS011;4187;42.778;23.242;2023-06-24T11:48:01;6.82;;;6.22;;
8297;SDS011;4187;42.778;23.242;2023-06-24T11:50:30;6.90;;;6.20;;
8297;SDS011;4187;42.778;23.242;2023-06-24T11:52:58;6.78;;;6.07;;
8297;SDS011;4187;42.778;23.242;2023-06-24T11:55:25;7.45;;;6.30;;
8297;SDS011;4187;42.778;23.242;2023-06-24T11:57:56;7.40;;;6.57;;
8297;SDS011;4187;42.778;23.242;2023-06-24T12:00:24;8.48;;;6.82;;
8297;SDS011;4187;42.778;23.242;2023-06-24T12:02:56;7.60;;;6.80;;
8297;SDS011;4187;42.778;23.242;2023-06-24T12:05:24;9.07;;;6.20;;
8297;SDS011;4187;42.778;23.242;2023-06-24T12:07:56;6.63;;;5.78;;
8297;SDS011;4187;42.778;23.242;2023-06-24T12:10:24;6.97;;;6.25;;
8297;SDS011;4187;42.778;23.242;2023-06-24T12:12:51;8.55;;;6.55;;
8297;SDS011;4187;42.778;23.242;2023-06-24T12:15:18;7.80;;;6.43;;
8297;SDS011;4187;42.778;23.242;2023-06-24T12:17:46;8.05;;;6.00;;
8297;SDS011;4187;42.778;23.242;2023-06-24T12:20:14;7.43;;;6.45;;
8297;SDS011;4187;42.778;23.242;2023-06-24T12:22:42;7.75;;;7.05;;
8297;SDS011;4187;42.778;23.242;2023-06-24T12:25:10;7.78;;;6.63;;
8297;SDS011;4187;42.778;23.242;2023-06-24T12:27:37;9.13;;;6.93;;
8297;SDS011;4187;42.778;23.242;2023-06-24T12:30:05;7.93;;;7.25;;
8297;SDS011;4187;42.778;23.242;2023-06-24T12:32:33;7.13;;;6.63;;
8297;SDS011;4187;42.778;23.242;2023-06-24T12:35:00;7.75;;;6.45;;
8297;SDS011;4187;42.778;23.242;2023-06-24T12:37:29;9.35;;;6.75;;
8297;SDS011;4187;42.778;23.242;2023-06-24T12:39:57;8.88;;;7.10;;
8297;SDS011;4187;42.778;23.242;2023-06-24T12:42:25;7.00;;;6.30;;
8297;SDS011;4187;42.778;23.242;2023-06-24T12:44:51;7.25;;;6.45;;
8297;SDS011;4187;42.778;23.242;2023-06-24T12:47:18;7.05;;;6.45;;
8297;SDS011;4187;42.778;23.242;2023-06-24T12:49:45;8.20;;;6.43;;
8297;SDS011;4187;42.778;23.242;2023-06-24T12:52:12;7.00;;;6.30;;
8297;SDS011;4187;42.778;23.242;2023-06-24T12:54:41;7.15;;;6.35;;
8297;SDS011;4187;42.778;23.242;2023-06-24T12:57:08;7.15;;;6.20;;
8297;SDS011;4187;42.778;23.242;2023-06-24T12:59:35;11.15;;;7.68;;
8297;SDS011;4187;42.778;23.242;2023-06-24T13:02:03;12.25;;;8.38;;
8297;SDS011;4187;42.778;23.242;2023-06-24T13:04:30;15.65;;;8.98;;
8297;SDS011;4187;42.778;23.242;2023-06-24T13:06:57;14.23;;;8.50;;
8297;SDS011;4187;42.778;23.242;2023-06-24T13:09:24;10.90;;;8.23;;
8297;SDS011;4187;42.778;23.242;2023-06-24T13:11:52;13.35;;;8.98;;
8297;SDS011;4187;42.778;23.242;2023-06-24T13:14:18;13.30;;;8.23;;
8297;SDS011;4187;42.778;23.242;2023-06-24T13:16:45;11.15;;;7.95;;
8297;SDS011;4187;42.778;23.242;2023-06-24T13:19:12;15.43;;;8.93;;
8297;SDS011;4187;42.778;23.242;2023-06-24T13:21:39;13.93;;;8.52;;
8297;SDS011;4187;42.778;23.242;2023-06-24T13:24:07;11.00;;;9.10;;
8297;SDS011;4187;42.778;23.242;2023-06-24T13:26:34;10.82;;;8.82;;
8297;SDS011;4187;42.778;23.242;2023-06-24T13:29:02;11.90;;;8.10;;
8297;SDS011;4187;42.778;23.242;2023-06-24T13:31:29;20.95;;;7.07;;
8297;SDS011;4187;42.778;23.242;2023-06-24T13:33:56;16.23;;;6.78;;
8297;SDS011;4187;42.778;23.242;2023-06-24T13:36:30;14.02;;;6.70;;
8297;SDS011;4187;42.778;23.242;2023-06-24T13:39:00;15.43;;;7.15;;
8297;SDS011;4187;42.778;23.242;2023-06-24T13:41:27;18.05;;;7.88;;
8297;SDS011;4187;42.778;23.242;2023-06-24T13:43:55;17.35;;;7.47;;
8297;SDS011;4187;42.778;23.242;2023-06-24T13:46:24;16.92;;;9.20;;
8297;SDS011;4187;42.778;23.242;2023-06-24T13:48:51;13.80;;;8.38;;
8297;SDS011;4187;42.778;23.242;2023-06-24T13:51:18;11.27;;;7.85;;
8297;SDS011;4187;42.778;23.242;2023-06-24T13:53:45;9.93;;;7.40;;
8297;SDS011;4187;42.778;23.242;2023-06-24T13:56:12;12.50;;;7.55;;
8297;SDS011;4187;42.778;23.242;2023-06-24T13:58:39;13.52;;;8.32;;
8297;SDS011;4187;42.778;23.242;2023-06-24T14:01:06;12.15;;;7.90;;
8297;SDS011;4187;42.778;23.242;2023-06-24T14:03:34;11.23;;;6.13;;
8297;SDS011;4187;42.778;23.242;2023-06-24T14:06:01;6.70;;;5.35;;
8297;SDS011;4187;42.778;23.242;2023-06-24T14:08:29;13.02;;;6.60;;
8297;SDS011;4187;42.778;23.242;2023-06-24T14:10:57;9.05;;;6.57;;
8297;SDS011;4187;42.778;23.242;2023-06-24T14:13:25;12.77;;;7.22;;
8297;SDS011;4187;42.778;23.242;2023-06-24T14:15:52;17.05;;;7.75;;
8297;SDS011;4187;42.778;23.242;2023-06-24T14:18:19;9.60;;;6.20;;
8297;SDS011;4187;42.778;23.242;2023-06-24T14:20:47;13.90;;;6.70;;
8297;SDS011;4187;42.778;23.242;2023-06-24T14:23:14;19.13;;;7.45;;
8297;SDS011;4187;42.778;23.242;2023-06-24T14:25:41;9.52;;;6.50;;
8297;SDS011;4187;42.778;23.242;2023-06-24T14:28:08;11.55;;;6.00;;
8297;SDS011;4187;42.778;23.242;2023-06-24T14:30:35;13.57;;;6.53;;
8297;SDS011;4187;42.778;23.242;2023-06-24T14:33:01;13.55;;;6.82;;
8297;SDS011;4187;42.778;23.242;2023-06-24T14:35:30;13.25;;;6.28;;
8297;SDS011;4187;42.778;23.242;2023-06-24T14:37:58;10.82;;;5.28;;
8297;SDS011;4187;42.778;23.242;2023-06-24T14:40:25;11.93;;;5.75;;
8297;SDS011;4187;42.778;23.242;2023-06-24T14:42:52;10.98;;;5.47;;
8297;SDS011;4187;42.778;23.242;2023-06-24T14:45:19;11.50;;;5.35;;
8297;SDS011;4187;42.778;23.242;2023-06-24T14:47:46;13.50;;;6.40;;
8297;SDS011;4187;42.778;23.242;2023-06-24T14:50:13;11.65;;;5.05;;
8297;SDS011;4187;42.778;23.242;2023-06-24T14:52:40;10.43;;;6.82;;